createdAt,value
2023-05-08T00:01:21.132Z,15.47
2023-05-08T00:03:24.494Z,15.51
2023-05-08T00:05:27.375Z,15.52
2023-05-08T00:07:30.167Z,14.99
2023-05-08T00:09:32.948Z,15.30
2023-05-08T00:11:35.709Z,15.39
2023-05-08T00:13:38.474Z,15.49
2023-05-08T00:15:42.549Z,15.53
2023-05-08T00:17:45.415Z,15.56
2023-05-08T00:19:48.174Z,15.54
2023-05-08T00:21:50.997Z,15.54
2023-05-08T00:23:53.945Z,15.55
2023-05-08T00:25:56.679Z,15.55
2023-05-08T00:27:59.517Z,15.56
2023-05-08T00:30:02.293Z,15.53
2023-05-08T00:32:06.912Z,15.46
2023-05-08T00:34:09.833Z,15.27
2023-05-08T00:36:12.649Z,15.24
2023-05-08T00:38:15.666Z,15.12
2023-05-08T00:40:18.407Z,15.03
2023-05-08T00:42:21.247Z,15.05
2023-05-08T00:44:23.963Z,14.99
2023-05-08T00:46:27.336Z,15.02
2023-05-08T00:48:35.061Z,15.09
2023-05-08T00:50:37.900Z,15.15
2023-05-08T00:52:41.345Z,15.24
2023-05-08T00:54:44.684Z,15.28
2023-05-08T00:56:48.071Z,14.95
2023-05-08T00:58:52.271Z,15.37
2023-05-08T01:00:57.322Z,15.17
2023-05-08T01:03:01.681Z,14.95
2023-05-08T01:05:07.659Z,14.96
2023-05-08T01:07:11.453Z,14.88
2023-05-08T01:09:14.189Z,14.83
2023-05-08T01:11:24.646Z,14.79
2023-05-08T01:13:37.830Z,14.78
2023-05-08T01:15:48.460Z,14.62
2023-05-08T01:18:02.042Z,14.33
2023-05-08T01:20:25.527Z,14.60
2023-05-08T01:22:55.788Z,14.79
2023-05-08T01:25:30.625Z,14.51
2023-05-08T01:27:50.996Z,14.50
2023-05-08T01:30:30.483Z,14.47
2023-05-08T01:32:38.117Z,14.72
2023-05-08T01:34:47.633Z,14.86
2023-05-08T01:36:55.772Z,14.81
2023-05-08T01:39:11.058Z,14.75
2023-05-08T01:41:18.113Z,14.62
2023-05-08T01:43:27.555Z,14.28
2023-05-08T01:45:34.105Z,14.40
2023-05-08T01:47:42.459Z,14.37
2023-05-08T01:49:49.050Z,14.46
2023-05-08T01:52:00.121Z,14.64
2023-05-08T01:54:10.013Z,14.36
2023-05-08T01:56:28.223Z,14.26
2023-05-08T01:58:33.310Z,14.16
2023-05-08T02:00:36.834Z,14.26
2023-05-08T02:02:41.813Z,14.38
2023-05-08T02:04:45.807Z,14.32
2023-05-08T02:06:48.743Z,14.37
2023-05-08T02:08:54.321Z,14.47
2023-05-08T02:10:58.762Z,14.44
2023-05-08T02:13:03.485Z,14.51
2023-05-08T02:15:09.123Z,14.51
2023-05-08T02:17:13.597Z,14.38
2023-05-08T02:19:19.323Z,14.67
2023-05-08T02:21:23.489Z,14.77
2023-05-08T02:23:27.580Z,14.85
2023-05-08T02:25:32.117Z,14.52
2023-05-08T02:27:35.680Z,14.89
2023-05-08T02:29:39.006Z,14.85
2023-05-08T02:31:43.086Z,14.87
2023-05-08T02:33:46.735Z,14.96
2023-05-08T02:35:52.438Z,14.23
2023-05-08T02:37:57.229Z,14.98
2023-05-08T02:40:00.344Z,14.96
2023-05-08T02:42:03.970Z,14.98
2023-05-08T02:44:07.209Z,14.98
2023-05-08T02:46:13.549Z,15.02
2023-05-08T02:48:23.832Z,15.03
2023-05-08T02:50:36.292Z,15.04
2023-05-08T02:52:45.789Z,14.61
2023-05-08T02:54:59.414Z,15.05
2023-05-08T02:57:07.721Z,15.01
2023-05-08T02:59:19.980Z,14.98
2023-05-08T03:01:29.001Z,14.86
2023-05-08T03:03:38.003Z,15.00
2023-05-08T03:05:45.694Z,14.93
2023-05-08T03:07:53.837Z,13.94
2023-05-08T03:10:00.202Z,14.66
2023-05-08T03:12:08.953Z,14.67
2023-05-08T03:14:17.082Z,14.79
2023-05-08T03:16:25.492Z,14.80
2023-05-08T03:18:37.734Z,14.81
2023-05-08T03:20:45.536Z,14.87
2023-05-08T03:22:51.874Z,14.92
2023-05-08T03:24:55.798Z,14.95
2023-05-08T03:27:00.295Z,14.98
2023-05-08T03:29:04.513Z,14.74
2023-05-08T03:31:09.833Z,15.01
2023-05-08T03:33:14.086Z,15.03
2023-05-08T03:35:17.622Z,15.00
2023-05-08T03:37:20.925Z,15.00
2023-05-08T03:39:26.737Z,14.94
2023-05-08T03:41:30.949Z,14.72
2023-05-08T03:43:35.065Z,14.77
2023-05-08T03:45:39.296Z,14.46
2023-05-08T03:47:44.385Z,14.68
2023-05-08T03:49:48.418Z,14.13
2023-05-08T03:51:51.900Z,14.19
2023-05-08T03:53:54.697Z,14.05
2023-05-08T03:56:00.191Z,13.12
2023-05-08T03:58:16.145Z,13.14
2023-05-08T04:00:26.370Z,14.04
2023-05-08T04:02:38.787Z,14.03
2023-05-08T04:04:46.515Z,14.18
2023-05-08T04:07:00.600Z,14.69
2023-05-08T04:09:14.340Z,14.95
2023-05-08T04:11:26.795Z,15.04
2023-05-08T04:13:33.416Z,15.08
2023-05-08T04:15:40.399Z,15.17
2023-05-08T04:17:46.537Z,15.27
2023-05-08T04:19:57.003Z,15.53
2023-05-08T04:22:09.709Z,15.75
2023-05-08T04:24:16.021Z,14.56
2023-05-08T04:26:22.400Z,15.32
2023-05-08T04:28:26.996Z,15.38
2023-05-08T04:30:30.846Z,15.54
2023-05-08T04:32:35.106Z,15.18
2023-05-08T04:34:38.160Z,15.15
2023-05-08T04:36:41.440Z,15.01
2023-05-08T04:38:44.868Z,14.94
2023-05-08T04:40:48.480Z,14.98
2023-05-08T04:42:53.044Z,15.08
2023-05-08T04:44:57.327Z,14.64
2023-05-08T04:47:00.187Z,15.07
2023-05-08T04:49:02.951Z,15.05
2023-05-08T04:51:07.088Z,14.95
2023-05-08T04:53:09.846Z,15.08
2023-05-08T04:55:13.278Z,15.16
2023-05-08T04:57:16.288Z,15.18
2023-05-08T04:59:20.499Z,15.17
2023-05-08T05:01:23.387Z,15.20
2023-05-08T05:03:26.216Z,15.19
2023-05-08T05:05:29.015Z,15.17
2023-05-08T05:07:31.914Z,15.19
2023-05-08T05:09:36.983Z,15.21
2023-05-08T05:11:40.399Z,15.16
2023-05-08T05:13:43.223Z,15.00
2023-05-08T05:15:47.554Z,15.02
2023-05-08T05:17:51.411Z,14.97
2023-05-08T05:19:54.201Z,15.07
2023-05-08T05:21:57.450Z,15.08
2023-05-08T05:24:00.911Z,15.07
2023-05-08T05:26:03.756Z,15.06
2023-05-08T05:28:07.171Z,15.04
2023-05-08T05:30:10.651Z,15.05
2023-05-08T05:32:15.245Z,14.89
2023-05-08T05:34:18.503Z,14.68
2023-05-08T05:36:21.374Z,14.77
2023-05-08T05:38:24.394Z,14.60
2023-05-08T05:40:27.257Z,14.72
2023-05-08T05:42:30.164Z,14.55
2023-05-08T05:44:32.961Z,14.34
2023-05-08T05:46:35.935Z,14.61
2023-05-08T05:48:41.020Z,14.75
2023-05-08T05:50:45.462Z,14.85
2023-05-08T05:52:49.387Z,14.96
2023-05-08T05:54:52.703Z,14.98
2023-05-08T05:56:55.960Z,15.03
2023-05-08T05:58:58.688Z,14.45
2023-05-08T06:01:02.264Z,14.52
2023-05-08T06:03:06.459Z,14.72
2023-05-08T06:05:11.558Z,14.73
2023-05-08T06:07:14.676Z,14.96
2023-05-08T06:09:17.538Z,14.98
2023-05-08T06:11:20.516Z,15.05
2023-05-08T06:13:23.366Z,15.25
2023-05-08T06:15:27.033Z,15.21
2023-05-08T06:17:30.477Z,15.29
2023-05-08T06:19:33.202Z,15.23
2023-05-08T06:21:37.386Z,14.84
2023-05-08T06:23:40.106Z,15.05
2023-05-08T06:25:42.836Z,15.18
2023-05-08T06:27:45.594Z,15.22
2023-05-08T06:29:48.429Z,15.00
2023-05-08T06:31:51.133Z,15.18
2023-05-08T06:33:53.856Z,15.20
2023-05-08T06:35:56.841Z,15.39
2023-05-08T06:38:01.405Z,15.09
2023-05-08T06:40:12.057Z,15.66
2023-05-08T06:42:15.589Z,15.75
2023-05-08T06:44:21.593Z,15.85
2023-05-08T06:46:24.647Z,15.92
2023-05-08T06:48:29.091Z,15.98
2023-05-08T06:50:32.203Z,16.03
2023-05-08T06:52:34.965Z,16.06
2023-05-08T06:54:39.149Z,16.08
2023-05-08T06:56:41.901Z,16.07
2023-05-08T06:58:48.431Z,16.17
2023-05-08T07:01:00.806Z,16.26
2023-05-08T07:03:03.997Z,16.28
2023-05-08T07:05:07.957Z,16.17
2023-05-08T07:07:11.590Z,16.08
2023-05-08T07:09:14.473Z,16.21
2023-05-08T07:11:18.568Z,16.31
2023-05-08T07:13:22.088Z,16.28
2023-05-08T07:15:26.345Z,16.27
2023-05-08T07:17:30.780Z,15.90
2023-05-08T07:19:33.938Z,15.97
2023-05-08T07:21:36.823Z,15.95
2023-05-08T07:23:39.532Z,16.01
2023-05-08T07:25:42.232Z,16.17
2023-05-08T07:27:46.387Z,16.27
2023-05-08T07:29:49.068Z,16.33
2023-05-08T07:31:52.166Z,16.47
2023-05-08T07:33:54.982Z,16.54
2023-05-08T07:35:58.171Z,16.33
2023-05-08T07:38:00.953Z,16.58
2023-05-08T07:40:03.832Z,16.62
2023-05-08T07:42:06.762Z,16.69
2023-05-08T07:44:10.857Z,16.70
2023-05-08T07:46:18.489Z,16.47
2023-05-08T07:48:21.276Z,16.49
2023-05-08T07:50:25.602Z,16.67
2023-05-08T07:52:28.520Z,16.84
2023-05-08T07:54:31.277Z,16.83
2023-05-08T07:56:34.122Z,16.78
2023-05-08T07:58:36.900Z,16.81
2023-05-08T08:00:41.148Z,16.66
2023-05-08T08:02:44.618Z,16.19
2023-05-08T08:04:47.645Z,16.89
2023-05-08T08:06:50.608Z,16.45
2023-05-08T08:08:53.312Z,16.44
2023-05-08T08:10:56.049Z,16.94
2023-05-08T08:13:01.527Z,17.00
2023-05-08T08:15:04.717Z,17.02
2023-05-08T08:17:08.932Z,17.08
2023-05-08T08:19:11.736Z,17.13
2023-05-08T08:21:14.502Z,17.18
2023-05-08T08:23:17.294Z,17.27
2023-05-08T08:25:20.879Z,17.32
2023-05-08T08:27:24.088Z,17.40
2023-05-08T08:29:27.012Z,17.09
2023-05-08T08:31:29.770Z,17.23
2023-05-08T08:33:33.908Z,17.36
2023-05-08T08:35:36.709Z,17.43
2023-05-08T08:37:39.515Z,16.98
2023-05-08T08:39:42.267Z,17.48
2023-05-08T08:41:45.048Z,17.46
2023-05-08T08:43:47.829Z,17.51
2023-05-08T08:45:50.600Z,17.47
2023-05-08T08:47:53.897Z,17.47
2023-05-08T08:50:01.752Z,17.48
2023-05-08T08:52:11.923Z,17.40
2023-05-08T08:54:18.450Z,16.93
2023-05-08T08:56:24.636Z,16.63
2023-05-08T08:58:32.631Z,16.42
2023-05-08T09:00:38.352Z,16.50
2023-05-08T09:02:41.315Z,15.92
2023-05-08T09:04:44.723Z,15.01
2023-05-08T09:06:50.760Z,15.92
2023-05-08T09:08:56.297Z,16.15
2023-05-08T09:10:59.386Z,16.34
2023-05-08T09:13:02.209Z,16.42
2023-05-08T09:15:06.773Z,16.58
2023-05-08T09:17:10.446Z,16.67
2023-05-08T09:19:15.863Z,16.77
2023-05-08T09:21:22.159Z,16.75
2023-05-08T09:23:26.358Z,16.40
2023-05-08T09:25:42.547Z,16.17
2023-05-08T09:27:47.953Z,15.76
2023-05-08T09:30:02.908Z,16.13
2023-05-08T09:32:06.165Z,16.20
2023-05-08T09:34:09.566Z,16.39
2023-05-08T09:36:26.682Z,16.46
2023-05-08T09:38:38.189Z,15.88
2023-05-08T09:40:40.946Z,16.07
2023-05-08T09:42:43.900Z,16.04
2023-05-08T09:44:49.403Z,15.78
2023-05-08T09:46:52.172Z,15.96
2023-05-08T09:48:56.436Z,16.09
2023-05-08T09:51:06.806Z,16.10
2023-05-08T09:53:09.557Z,16.15
2023-05-08T09:55:13.775Z,15.98
2023-05-08T09:57:17.008Z,16.01
2023-05-08T09:59:27.842Z,15.79
2023-05-08T10:01:33.004Z,16.06
2023-05-08T10:03:48.076Z,15.70
2023-05-08T10:05:50.865Z,15.97
2023-05-08T10:07:53.755Z,15.72
2023-05-08T10:10:01.486Z,15.71
2023-05-08T10:12:06.909Z,15.85
2023-05-08T10:14:10.112Z,15.37
2023-05-08T10:16:17.105Z,15.41
2023-05-08T10:18:23.117Z,15.44
2023-05-08T10:20:29.500Z,15.70
2023-05-08T10:22:37.343Z,15.88
2023-05-08T10:24:42.039Z,15.92
2023-05-08T10:27:05.549Z,16.19
2023-05-08T10:29:18.097Z,16.24
2023-05-08T10:31:25.692Z,16.33
2023-05-08T10:33:32.405Z,16.36
2023-05-08T10:35:35.375Z,16.40
2023-05-08T10:37:39.489Z,16.55
2023-05-08T10:39:43.907Z,16.55
2023-05-08T10:41:48.039Z,16.15
2023-05-08T10:43:51.701Z,16.29
2023-05-08T10:45:57.472Z,16.59
2023-05-08T10:48:06.135Z,16.59
2023-05-08T10:50:20.236Z,16.42
2023-05-08T10:52:31.059Z,16.58
2023-05-08T10:54:46.251Z,16.52
2023-05-08T10:56:50.155Z,16.44
2023-05-08T10:58:57.079Z,16.56
2023-05-08T11:01:15.109Z,16.58
2023-05-08T11:03:30.453Z,16.98
2023-05-08T11:05:47.372Z,16.87
2023-05-08T11:07:57.419Z,16.27
2023-05-08T11:10:08.794Z,17.17
2023-05-08T11:12:23.920Z,17.27
2023-05-08T11:14:27.932Z,17.01
2023-05-08T11:17:02.899Z,17.66
2023-05-08T11:19:26.100Z,17.79
2023-05-08T11:21:28.740Z,17.52
2023-05-08T11:23:32.235Z,17.51
2023-05-08T11:25:43.428Z,18.11
2023-05-08T11:28:13.837Z,18.10
2023-05-08T11:30:20.777Z,18.36
2023-05-08T11:32:26.214Z,18.69
2023-05-08T11:34:49.849Z,18.45
2023-05-08T11:37:02.784Z,18.85
2023-05-08T11:39:12.624Z,18.82
2023-05-08T11:41:22.586Z,18.50
2023-05-08T11:43:27.142Z,17.93
2023-05-08T11:45:30.724Z,17.57
2023-05-08T11:47:39.147Z,17.79
2023-05-08T11:49:42.038Z,17.70
2023-05-08T11:51:48.174Z,17.86
2023-05-08T11:53:51.510Z,18.04
2023-05-08T11:55:54.792Z,18.10
2023-05-08T11:57:57.605Z,18.44
2023-05-08T12:00:05.046Z,18.88
2023-05-08T12:02:11.521Z,19.23
2023-05-08T12:04:14.580Z,19.55
2023-05-08T12:06:20.000Z,19.95
2023-05-08T12:08:24.197Z,20.01
2023-05-08T12:10:26.980Z,20.06
2023-05-08T12:12:39.262Z,20.65
2023-05-08T12:14:42.027Z,21.33
2023-05-08T12:16:44.819Z,22.01
2023-05-08T12:18:50.321Z,20.92
2023-05-08T12:20:54.087Z,20.10
2023-05-08T12:22:56.922Z,20.90
2023-05-08T12:25:01.030Z,20.84
2023-05-08T12:27:04.765Z,21.26
2023-05-08T12:29:08.628Z,21.48
2023-05-08T12:31:12.314Z,22.33
2023-05-08T12:33:16.132Z,23.11
2023-05-08T12:35:19.096Z,23.12
2023-05-08T12:37:27.684Z,22.41
2023-05-08T12:39:35.609Z,22.82
2023-05-08T12:41:47.648Z,22.86
2023-05-08T12:43:50.381Z,23.13
2023-05-08T12:45:53.412Z,22.83
2023-05-08T12:48:00.374Z,22.12
2023-05-08T12:50:03.224Z,22.67
2023-05-08T12:52:07.539Z,22.78
2023-05-08T12:54:10.309Z,22.29
2023-05-08T12:56:13.061Z,22.59
2023-05-08T12:58:17.944Z,23.46
2023-05-08T13:00:21.156Z,23.86
2023-05-08T13:02:26.360Z,24.26
2023-05-08T13:04:30.395Z,23.62
2023-05-08T13:06:33.286Z,21.66
2023-05-08T13:08:37.953Z,21.42
2023-05-08T13:10:49.098Z,20.92
2023-05-08T13:12:52.252Z,20.92
2023-05-08T13:14:56.500Z,20.54
2023-05-08T13:16:59.780Z,20.39
2023-05-08T13:19:02.668Z,20.52
2023-05-08T13:21:05.791Z,20.41
2023-05-08T13:23:08.564Z,21.30
2023-05-08T13:25:11.446Z,22.00
2023-05-08T13:27:14.703Z,23.19
2023-05-08T13:29:17.559Z,22.85
2023-05-08T13:31:21.659Z,23.00
2023-05-08T13:33:24.461Z,23.89
2023-05-08T13:35:28.398Z,24.52
2023-05-08T13:37:31.452Z,24.51
2023-05-08T13:39:37.757Z,25.04
2023-05-08T13:41:40.491Z,24.04
2023-05-08T13:43:43.445Z,23.51
2023-05-08T13:45:46.196Z,21.97
2023-05-08T13:47:51.290Z,22.18
2023-05-08T13:49:54.170Z,22.26
2023-05-08T13:51:57.317Z,21.70
2023-05-08T13:54:00.209Z,21.82
2023-05-08T13:56:03.098Z,21.74
2023-05-08T13:58:05.918Z,21.45
2023-05-08T14:00:10.265Z,21.66
2023-05-08T14:02:13.287Z,21.39
2023-05-08T14:04:19.131Z,21.40
2023-05-08T14:06:21.909Z,21.19
2023-05-08T14:08:24.726Z,21.43
2023-05-08T14:10:27.494Z,21.37
2023-05-08T14:12:30.389Z,21.31
2023-05-08T14:14:34.498Z,21.35
2023-05-08T14:16:37.612Z,21.23
2023-05-08T14:18:40.393Z,21.07
2023-05-08T14:20:49.001Z,21.01
2023-05-08T14:22:54.428Z,20.66
2023-05-08T14:24:57.113Z,21.04
2023-05-08T14:27:01.931Z,20.90
2023-05-08T14:29:04.935Z,20.92
2023-05-08T14:31:07.820Z,20.96
2023-05-08T14:33:10.642Z,20.75
2023-05-08T14:35:14.122Z,21.10
2023-05-08T14:37:18.859Z,20.71
2023-05-08T14:39:21.640Z,20.64
2023-05-08T14:41:28.318Z,20.63
2023-05-08T14:43:31.020Z,20.89
2023-05-08T14:45:33.747Z,20.82
2023-05-08T14:47:36.550Z,20.89
2023-05-08T14:49:39.231Z,21.13
2023-05-08T14:51:41.898Z,21.02
2023-05-08T14:53:46.067Z,20.95
2023-05-08T14:55:48.896Z,20.51
2023-05-08T14:57:52.004Z,19.99
2023-05-08T14:59:56.160Z,20.34
2023-05-08T15:01:58.908Z,20.38
2023-05-08T15:04:01.796Z,20.35
2023-05-08T15:06:05.641Z,19.42
2023-05-08T15:08:09.591Z,19.79
2023-05-08T15:10:14.474Z,19.56
2023-05-08T15:12:17.194Z,19.75
2023-05-08T15:14:19.895Z,19.57
2023-05-08T15:16:22.614Z,19.96
2023-05-08T15:18:28.380Z,19.62
2023-05-08T15:20:31.149Z,19.69
2023-05-08T15:22:33.905Z,19.65
2023-05-08T15:24:36.713Z,18.65
2023-05-08T15:26:40.776Z,18.79
2023-05-08T15:28:43.498Z,18.74
2023-05-08T15:30:46.818Z,18.45
2023-05-08T15:32:49.714Z,19.13
2023-05-08T15:34:52.560Z,16.07
2023-05-08T15:36:55.976Z,18.82
2023-05-08T15:38:58.804Z,18.41
2023-05-08T15:41:01.579Z,18.45
2023-05-08T15:43:05.682Z,18.73
2023-05-08T15:45:09.578Z,18.38
2023-05-08T15:47:12.284Z,18.76
2023-05-08T15:49:14.999Z,18.41
2023-05-08T15:51:17.846Z,18.29
2023-05-08T15:53:20.568Z,18.39
2023-05-08T15:55:23.579Z,18.58
2023-05-08T15:57:27.071Z,18.20
2023-05-08T15:59:31.198Z,18.47
2023-05-08T16:01:34.008Z,17.73
2023-05-08T16:03:36.959Z,18.35
2023-05-08T16:05:40.086Z,18.21
2023-05-08T16:07:43.745Z,18.07
2023-05-08T16:09:46.602Z,17.84
2023-05-08T16:11:49.404Z,17.30
2023-05-08T16:13:52.272Z,16.89
2023-05-08T16:15:56.402Z,16.98
2023-05-08T16:17:59.227Z,16.99
2023-05-08T16:20:03.762Z,16.65
2023-05-08T16:22:06.901Z,16.34
2023-05-08T16:24:09.758Z,16.53
2023-05-08T16:26:13.971Z,16.08
2023-05-08T16:28:16.690Z,16.36
2023-05-08T16:30:19.768Z,16.10
2023-05-08T16:32:23.838Z,15.72
2023-05-08T16:34:26.537Z,15.93
2023-05-08T16:36:29.290Z,16.03
2023-05-08T16:38:32.057Z,16.11
2023-05-08T16:40:34.877Z,16.31
2023-05-08T16:42:37.983Z,16.08
2023-05-08T16:44:40.700Z,15.80
2023-05-08T16:46:43.494Z,15.81
2023-05-08T16:48:48.311Z,16.07
2023-05-08T16:50:51.295Z,15.96
2023-05-08T16:52:54.050Z,15.60
2023-05-08T16:54:56.732Z,15.89
2023-05-08T16:56:59.533Z,15.75
2023-05-08T16:59:05.991Z,14.83
2023-05-08T17:01:08.726Z,15.80
2023-05-08T17:03:11.549Z,15.97
2023-05-08T17:05:15.755Z,15.83
2023-05-08T17:07:19.121Z,16.27
2023-05-08T17:09:21.836Z,16.46
2023-05-08T17:11:24.517Z,16.53
2023-05-08T17:13:27.306Z,16.48
2023-05-08T17:15:30.389Z,16.45
2023-05-08T17:17:33.144Z,16.38
2023-05-08T17:19:36.209Z,16.15
2023-05-08T17:21:40.257Z,16.37
2023-05-08T17:23:42.938Z,16.53
2023-05-08T17:25:45.612Z,15.91
2023-05-08T17:27:48.272Z,16.59
2023-05-08T17:29:50.995Z,16.62
2023-05-08T17:31:53.703Z,16.57
2023-05-08T17:33:56.396Z,16.61
2023-05-08T17:35:59.064Z,16.57
2023-05-08T17:38:03.046Z,16.52
2023-05-08T17:40:06.758Z,16.32
2023-05-08T17:42:09.759Z,16.51
2023-05-08T17:44:12.563Z,16.57
2023-05-08T17:46:15.485Z,16.51
2023-05-08T17:48:18.382Z,16.43
2023-05-08T17:50:21.320Z,16.08
2023-05-08T17:52:23.992Z,16.42
2023-05-08T17:54:28.087Z,16.27
2023-05-08T17:56:31.872Z,16.32
2023-05-08T17:58:34.722Z,16.37
2023-05-08T18:00:37.624Z,16.05
2023-05-08T18:02:40.487Z,16.15
2023-05-08T18:04:43.235Z,15.97
2023-05-08T18:06:47.712Z,16.18
2023-05-08T18:08:50.489Z,16.22
2023-05-08T18:10:54.554Z,16.15
2023-05-08T18:12:57.317Z,16.20
2023-05-08T18:15:00.846Z,16.22
2023-05-08T18:17:03.716Z,16.20
2023-05-08T18:19:06.481Z,16.16
2023-05-08T18:21:09.328Z,15.75
2023-05-08T18:23:12.090Z,16.17
2023-05-08T18:25:14.856Z,16.14
2023-05-08T18:27:18.895Z,16.14
2023-05-08T18:29:21.736Z,16.13
2023-05-08T18:31:24.502Z,16.12
2023-05-08T18:33:27.220Z,16.12
2023-05-08T18:35:29.961Z,16.10
2023-05-08T18:37:32.729Z,16.09
2023-05-08T18:39:35.454Z,16.06
2023-05-08T18:41:38.245Z,15.97
2023-05-08T18:43:42.375Z,16.09
2023-05-08T18:45:45.145Z,16.04
2023-05-08T18:47:48.097Z,16.02
2023-05-08T18:49:51.761Z,16.01
2023-05-08T18:51:54.430Z,16.03
2023-05-08T18:53:57.292Z,16.02
2023-05-08T18:56:03.008Z,15.90
2023-05-08T18:58:06.419Z,15.86
2023-05-08T19:00:11.827Z,15.97
2023-05-08T19:02:14.618Z,15.59
2023-05-08T19:04:17.525Z,15.93
2023-05-08T19:06:20.369Z,15.88
2023-05-08T19:08:23.198Z,15.84
2023-05-08T19:10:25.920Z,15.72
2023-05-08T19:12:28.739Z,15.81
2023-05-08T19:14:31.491Z,15.77
2023-05-08T19:16:35.600Z,15.77
2023-05-08T19:18:38.319Z,15.79
2023-05-08T19:20:41.010Z,15.76
2023-05-08T19:22:43.685Z,15.72
2023-05-08T19:24:46.472Z,15.49
2023-05-08T19:26:49.117Z,15.74
2023-05-08T19:28:51.776Z,15.70
2023-05-08T19:30:54.444Z,15.68
2023-05-08T19:32:58.531Z,15.68
2023-05-08T19:35:02.580Z,15.40
2023-05-08T19:37:06.269Z,15.53
2023-05-08T19:39:09.159Z,15.53
2023-05-08T19:41:12.601Z,15.57
2023-05-08T19:43:15.601Z,15.53
2023-05-08T19:45:18.349Z,15.53
2023-05-08T19:47:21.200Z,15.58
2023-05-08T19:49:25.359Z,15.60
2023-05-08T19:51:28.162Z,15.60
2023-05-08T19:53:30.820Z,15.67
2023-05-08T19:55:33.471Z,15.66
2023-05-08T19:57:36.238Z,15.68
2023-05-08T19:59:39.030Z,15.68
2023-05-08T20:01:43.441Z,15.66
2023-05-08T20:03:46.479Z,15.65
2023-05-08T20:05:51.781Z,15.65
2023-05-08T20:07:55.625Z,15.32
2023-05-08T20:09:58.422Z,15.57
2023-05-08T20:12:01.257Z,15.53
2023-05-08T20:14:04.076Z,15.55
2023-05-08T20:16:07.294Z,15.54
2023-05-08T20:18:10.260Z,15.54
2023-05-08T20:20:13.954Z,15.54
2023-05-08T20:22:18.212Z,15.55
2023-05-08T20:24:20.907Z,15.57
2023-05-08T20:26:23.693Z,15.57
2023-05-08T20:28:26.456Z,15.53
2023-05-08T20:30:29.211Z,15.52
2023-05-08T20:32:32.007Z,15.50
2023-05-08T20:34:34.781Z,15.27
2023-05-08T20:36:37.559Z,15.52
2023-05-08T20:38:41.638Z,15.51
2023-05-08T20:40:44.352Z,15.48
2023-05-08T20:42:47.112Z,15.45
2023-05-08T20:44:49.841Z,15.35
2023-05-08T20:46:52.582Z,15.36
2023-05-08T20:48:55.314Z,15.03
2023-05-08T20:50:57.992Z,15.33
2023-05-08T20:53:00.702Z,15.03
2023-05-08T20:55:05.478Z,15.33
2023-05-08T20:57:08.233Z,15.27
2023-05-08T20:59:11.411Z,15.11
2023-05-08T21:01:14.180Z,15.25
2023-05-08T21:03:16.952Z,15.26
2023-05-08T21:05:19.844Z,14.61
2023-05-08T21:07:22.573Z,15.23
2023-05-08T21:09:25.509Z,15.20
2023-05-08T21:11:29.830Z,15.19
2023-05-08T21:13:32.532Z,15.17
2023-05-08T21:15:35.288Z,15.14
2023-05-08T21:17:38.050Z,15.11
2023-05-08T21:19:40.864Z,15.05
2023-05-08T21:21:43.606Z,14.98
2023-05-08T21:23:46.517Z,14.95
2023-05-08T21:25:50.655Z,14.42
2023-05-08T21:27:55.473Z,14.50
2023-05-08T21:29:58.379Z,14.60
2023-05-08T21:32:01.160Z,14.56
2023-05-08T21:34:04.199Z,14.46
2023-05-08T21:36:07.290Z,14.40
2023-05-08T21:38:11.996Z,14.44
2023-05-08T21:40:14.887Z,14.45
2023-05-08T21:42:17.605Z,14.30
2023-05-08T21:44:21.613Z,14.40
2023-05-08T21:46:24.332Z,14.40
2023-05-08T21:48:27.122Z,14.46
2023-05-08T21:50:29.869Z,14.35
2023-05-08T21:52:32.618Z,14.13
2023-05-08T21:54:35.405Z,14.24
2023-05-08T21:56:38.258Z,14.29
2023-05-08T21:58:41.064Z,14.35
2023-05-08T22:00:45.163Z,14.35
2023-05-08T22:02:48.229Z,14.39
2023-05-08T22:04:51.109Z,14.39
2023-05-08T22:06:53.839Z,14.27
2023-05-08T22:08:56.639Z,14.27
2023-05-08T22:10:59.340Z,14.32
2023-05-08T22:13:02.166Z,14.27
2023-05-08T22:15:09.458Z,13.26
2023-05-08T22:17:19.086Z,14.19
2023-05-08T22:19:21.796Z,14.07
2023-05-08T22:21:24.522Z,14.08
2023-05-08T22:23:27.200Z,14.19
2023-05-08T22:25:29.974Z,14.34
2023-05-08T22:27:32.705Z,14.45
2023-05-08T22:29:35.423Z,14.52
2023-05-08T22:31:38.160Z,14.60
2023-05-08T22:33:42.199Z,14.64
2023-05-08T22:35:44.832Z,14.69
2023-05-08T22:37:47.525Z,14.55
2023-05-08T22:39:50.509Z,14.44
2023-05-08T22:41:53.218Z,14.51
2023-05-08T22:43:56.969Z,14.65
2023-05-08T22:46:00.478Z,14.69
2023-05-08T22:48:04.425Z,14.71
2023-05-08T22:50:11.574Z,14.72
2023-05-08T22:52:14.206Z,14.72
2023-05-08T22:54:16.911Z,14.64
2023-05-08T22:56:19.528Z,14.52
2023-05-08T22:58:22.235Z,14.38
2023-05-08T23:00:25.076Z,14.52
2023-05-08T23:02:32.784Z,14.55
2023-05-08T23:04:35.611Z,14.18
2023-05-08T23:06:39.702Z,14.57
2023-05-08T23:08:42.381Z,14.58
2023-05-08T23:10:45.316Z,14.23
2023-05-08T23:12:48.019Z,14.19
2023-05-08T23:14:50.734Z,14.15
2023-05-08T23:16:53.406Z,14.07
2023-05-08T23:18:56.350Z,14.15
2023-05-08T23:20:59.125Z,13.98
2023-05-08T23:23:03.110Z,14.06
2023-05-08T23:25:06.896Z,14.14
2023-05-08T23:27:09.569Z,14.03
2023-05-08T23:29:12.139Z,14.06
2023-05-08T23:31:14.865Z,14.09
2023-05-08T23:33:18.965Z,14.13
2023-05-08T23:35:21.698Z,14.20
2023-05-08T23:37:24.646Z,14.22
2023-05-08T23:39:28.770Z,14.26
2023-05-08T23:41:32.310Z,14.29
2023-05-08T23:43:35.003Z,14.16
2023-05-08T23:45:37.736Z,14.30
2023-05-08T23:47:40.548Z,14.30
2023-05-08T23:49:43.301Z,14.30
2023-05-08T23:51:46.227Z,14.27
2023-05-08T23:53:49.991Z,14.28
2023-05-08T23:55:54.040Z,14.27
2023-05-08T23:57:57.506Z,14.24
